sensor_id;sensor_type;location;lat;lon;timestamp;pressure;altitude;pressure_sealevel;temperature;humidity
19005;BME280;9635;52.078;8.648;2024-02-21T00:04:05;101025.88;;;7.06;100.00
19005;BME280;9635;52.078;8.648;2024-02-21T00:09:09;101013.28;;;6.92;100.00
19005;BME280;9635;52.078;8.648;2024-02-21T00:14:12;101017.16;;;7.18;100.00
19005;BME280;9635;52.078;8.648;2024-02-21T00:19:15;101022.16;;;6.93;100.00
19005;BME280;9635;52.078;8.648;2024-02-21T00:24:20;101013.34;;;6.75;100.00
19005;BME280;9635;52.078;8.648;2024-02-21T00:29:23;101017.59;;;6.95;100.00
19005;BME280;9635;52.078;8.648;2024-02-21T00:34:26;101000.78;;;7.09;100.00
19005;BME280;9635;52.078;8.648;2024-02-21T00:39:31;100993.25;;;7.31;100.00
19005;BME280;9635;52.078;8.648;2024-02-21T00:44:34;100981.31;;;6.91;100.00
19005;BME280;9635;52.078;8.648;2024-02-21T00:49:37;100977.25;;;7.15;100.00
19005;BME280;9635;52.078;8.648;2024-02-21T00:54:42;100970.63;;;7.06;100.00
19005;BME280;9635;52.078;8.648;2024-02-21T00:59:54;100965.91;;;7.42;100.00
19005;BME280;9635;52.078;8.648;2024-02-21T01:04:57;100953.78;;;7.36;100.00
19005;BME280;9635;52.078;8.648;2024-02-21T01:10:02;100955.16;;;7.27;100.00
19005;BME280;9635;52.078;8.648;2024-02-21T01:15:05;100945.34;;;7.28;100.00
19005;BME280;9635;52.078;8.648;2024-02-21T01:20:09;100962.84;;;7.18;100.00
19005;BME280;9635;52.078;8.648;2024-02-21T01:25:14;100954.84;;;7.48;98.72
19005;BME280;9635;52.078;8.648;2024-02-21T01:30:17;100939.44;;;7.37;99.90
19005;BME280;9635;52.078;8.648;2024-02-21T01:35:20;100920.81;;;7.21;100.00
19005;BME280;9635;52.078;8.648;2024-02-21T01:40:25;100932.88;;;7.43;99.13
19005;BME280;9635;52.078;8.648;2024-02-21T01:45:28;100928.53;;;7.56;97.68
19005;BME280;9635;52.078;8.648;2024-02-21T01:50:31;100924.50;;;7.49;97.58
19005;BME280;9635;52.078;8.648;2024-02-21T01:55:36;100913.28;;;7.28;100.00
19005;BME280;9635;52.078;8.648;2024-02-21T02:00:43;100902.50;;;7.30;99.17
19005;BME280;9635;52.078;8.648;2024-02-21T02:05:48;100890.69;;;7.48;97.95
19005;BME280;9635;52.078;8.648;2024-02-21T02:10:53;100906.50;;;7.37;98.36
19005;BME280;9635;52.078;8.648;2024-02-21T02:15:57;100889.06;;;7.45;96.23
19005;BME280;9635;52.078;8.648;2024-02-21T02:21:00;100880.19;;;7.45;97.15
19005;BME280;9635;52.078;8.648;2024-02-21T02:26:04;100860.22;;;7.36;97.53
19005;BME280;9635;52.078;8.648;2024-02-21T02:31:09;100863.81;;;7.21;99.38
19005;BME280;9635;52.078;8.648;2024-02-21T02:36:12;100861.09;;;7.51;96.87
19005;BME280;9635;52.078;8.648;2024-02-21T02:41:16;100862.34;;;7.45;98.08
19005;BME280;9635;52.078;8.648;2024-02-21T02:46:19;100851.16;;;7.39;97.55
19005;BME280;9635;52.078;8.648;2024-02-21T02:51:22;100837.94;;;7.52;96.76
19005;BME280;9635;52.078;8.648;2024-02-21T02:56:26;100816.22;;;7.42;98.04
19005;BME280;9635;52.078;8.648;2024-02-21T03:01:33;100804.72;;;7.11;100.00
19005;BME280;9635;52.078;8.648;2024-02-21T03:06:37;100790.34;;;7.42;97.90
19005;BME280;9635;52.078;8.648;2024-02-21T03:11:41;100772.59;;;7.56;96.95
19005;BME280;9635;52.078;8.648;2024-02-21T03:16:45;100753.25;;;7.38;98.21
19005;BME280;9635;52.078;8.648;2024-02-21T03:21:49;100759.63;;;7.64;95.42
19005;BME280;9635;52.078;8.648;2024-02-21T03:26:53;100756.09;;;7.49;96.04
19005;BME280;9635;52.078;8.648;2024-02-21T03:31:56;100756.84;;;7.22;97.66
19005;BME280;9635;52.078;8.648;2024-02-21T03:36:59;100774.16;;;7.01;99.17
19005;BME280;9635;52.078;8.648;2024-02-21T03:42:04;100774.44;;;7.41;96.87
19005;BME280;9635;52.078;8.648;2024-02-21T03:47:07;100781.25;;;7.16;98.35
19005;BME280;9635;52.078;8.648;2024-02-21T03:52:12;100802.06;;;7.25;96.75
19005;BME280;9635;52.078;8.648;2024-02-21T03:57:16;100792.84;;;7.01;99.84
19005;BME280;9635;52.078;8.648;2024-02-21T04:02:20;100808.00;;;7.16;98.51
19005;BME280;9635;52.078;8.648;2024-02-21T04:07:23;100814.81;;;7.06;99.10
19005;BME280;9635;52.078;8.648;2024-02-21T04:12:27;100794.06;;;7.25;97.73
19005;BME280;9635;52.078;8.648;2024-02-21T04:17:30;100785.72;;;7.16;98.32
19005;BME280;9635;52.078;8.648;2024-02-21T04:22:33;100805.97;;;7.20;97.64
19005;BME280;9635;52.078;8.648;2024-02-21T04:27:39;100787.03;;;7.39;96.29
19005;BME280;9635;52.078;8.648;2024-02-21T04:32:42;100797.31;;;7.16;98.19
19005;BME280;9635;52.078;8.648;2024-02-21T04:37:45;100805.84;;;7.07;98.02
19005;BME280;9635;52.078;8.648;2024-02-21T04:42:49;100797.63;;;7.10;97.69
19005;BME280;9635;52.078;8.648;2024-02-21T04:47:52;100801.81;;;7.30;96.40
19005;BME280;9635;52.078;8.648;2024-02-21T04:52:55;100794.81;;;7.13;98.18
19005;BME280;9635;52.078;8.648;2024-02-21T04:57:59;100793.81;;;7.00;100.00
19005;BME280;9635;52.078;8.648;2024-02-21T05:03:04;100802.03;;;6.97;100.00
19005;BME280;9635;52.078;8.648;2024-02-21T05:08:07;100794.28;;;6.76;100.00
19005;BME280;9635;52.078;8.648;2024-02-21T05:13:12;100774.53;;;6.95;100.00
19005;BME280;9635;52.078;8.648;2024-02-21T05:18:15;100774.44;;;6.96;100.00
19005;BME280;9635;52.078;8.648;2024-02-21T05:23:18;100770.84;;;6.81;100.00
19005;BME280;9635;52.078;8.648;2024-02-21T05:28:22;100762.50;;;6.88;100.00
19005;BME280;9635;52.078;8.648;2024-02-21T05:33:25;100746.88;;;6.80;100.00
19005;BME280;9635;52.078;8.648;2024-02-21T05:38:28;100754.41;;;6.73;100.00
19005;BME280;9635;52.078;8.648;2024-02-21T05:43:33;100768.13;;;6.67;100.00
19005;BME280;9635;52.078;8.648;2024-02-21T05:48:36;100747.84;;;6.79;100.00
19005;BME280;9635;52.078;8.648;2024-02-21T05:53:40;100737.34;;;6.92;100.00
19005;BME280;9635;52.078;8.648;2024-02-21T05:58:45;100718.53;;;6.63;100.00
19005;BME280;9635;52.078;8.648;2024-02-21T06:03:48;100731.91;;;6.77;100.00
19005;BME280;9635;52.078;8.648;2024-02-21T06:08:51;100732.50;;;6.82;100.00
19005;BME280;9635;52.078;8.648;2024-02-21T06:13:55;100726.91;;;6.87;100.00
19005;BME280;9635;52.078;8.648;2024-02-21T06:18:59;100734.03;;;7.02;100.00
19005;BME280;9635;52.078;8.648;2024-02-21T06:24:02;100729.34;;;7.35;100.00
19005;BME280;9635;52.078;8.648;2024-02-21T06:29:06;100723.44;;;6.85;100.00
19005;BME280;9635;52.078;8.648;2024-02-21T06:34:09;100737.72;;;7.00;100.00
19005;BME280;9635;52.078;8.648;2024-02-21T06:39:12;100734.31;;;7.12;100.00
19005;BME280;9635;52.078;8.648;2024-02-21T06:44:17;100719.22;;;6.97;100.00
19005;BME280;9635;52.078;8.648;2024-02-21T06:49:20;100693.72;;;7.48;98.47
19005;BME280;9635;52.078;8.648;2024-02-21T06:54:23;100692.31;;;7.00;99.68
19005;BME280;9635;52.078;8.648;2024-02-21T06:59:28;100686.09;;;7.42;96.42
19005;BME280;9635;52.078;8.648;2024-02-21T07:04:31;100679.13;;;7.54;95.27
19005;BME280;9635;52.078;8.648;2024-02-21T07:09:34;100696.63;;;7.60;93.98
19005;BME280;9635;52.078;8.648;2024-02-21T07:14:39;100677.53;;;7.52;93.93
19005;BME280;9635;52.078;8.648;2024-02-21T07:19:42;100678.22;;;7.41;92.96
19005;BME280;9635;52.078;8.648;2024-02-21T07:24:45;100673.44;;;7.73;90.76
19005;BME280;9635;52.078;8.648;2024-02-21T07:29:49;100678.38;;;7.52;91.43
19005;BME280;9635;52.078;8.648;2024-02-21T07:34:52;100701.75;;;7.48;89.82
19005;BME280;9635;52.078;8.648;2024-02-21T07:39:55;100701.88;;;7.47;89.91
19005;BME280;9635;52.078;8.648;2024-02-21T07:45:00;100698.19;;;7.62;89.03
19005;BME280;9635;52.078;8.648;2024-02-21T07:50:03;100707.16;;;7.76;87.09
19005;BME280;9635;52.078;8.648;2024-02-21T07:55:07;100690.66;;;8.10;85.25
19005;BME280;9635;52.078;8.648;2024-02-21T08:00:14;100690.63;;;7.83;85.98
19005;BME280;9635;52.078;8.648;2024-02-21T08:05:22;100687.53;;;7.89;85.62
19005;BME280;9635;52.078;8.648;2024-02-21T08:10:25;100688.25;;;8.20;83.63
19005;BME280;9635;52.078;8.648;2024-02-21T08:15:30;100666.47;;;8.12;83.32
19005;BME280;9635;52.078;8.648;2024-02-21T08:20:33;100662.63;;;8.16;84.02
19005;BME280;9635;52.078;8.648;2024-02-21T08:25:36;100664.34;;;7.90;83.99
19005;BME280;9635;52.078;8.648;2024-02-21T08:30:41;100650.88;;;7.91;84.00
19005;BME280;9635;52.078;8.648;2024-02-21T08:35:49;100629.63;;;8.43;81.41
19005;BME280;9635;52.078;8.648;2024-02-21T08:40:53;100631.25;;;8.58;79.98
19005;BME280;9635;52.078;8.648;2024-02-21T08:45:58;100620.53;;;8.45;79.82
19005;BME280;9635;52.078;8.648;2024-02-21T08:51:02;100626.69;;;8.20;80.95
19005;BME280;9635;52.078;8.648;2024-02-21T08:56:06;100611.16;;;8.78;78.16
19005;BME280;9635;52.078;8.648;2024-02-21T09:01:11;100610.22;;;8.39;78.27
19005;BME280;9635;52.078;8.648;2024-02-21T09:06:14;100612.63;;;8.69;77.69
19005;BME280;9635;52.078;8.648;2024-02-21T09:11:17;100593.00;;;9.07;76.84
19005;BME280;9635;52.078;8.648;2024-02-21T09:16:22;100603.13;;;8.78;77.75
19005;BME280;9635;52.078;8.648;2024-02-21T09:21:25;100602.88;;;8.55;77.90
19005;BME280;9635;52.078;8.648;2024-02-21T09:26:29;100591.38;;;8.40;78.76
19005;BME280;9635;52.078;8.648;2024-02-21T09:31:34;100611.34;;;8.22;79.43
19005;BME280;9635;52.078;8.648;2024-02-21T09:36:38;100582.63;;;9.02;77.06
19005;BME280;9635;52.078;8.648;2024-02-21T09:41:45;100590.13;;;8.84;76.01
19005;BME280;9635;52.078;8.648;2024-02-21T09:46:55;100596.03;;;8.77;76.17
19005;BME280;9635;52.078;8.648;2024-02-21T09:52:01;100577.19;;;8.78;74.59
19005;BME280;9635;52.078;8.648;2024-02-21T09:57:05;100569.41;;;9.12;73.31
19005;BME280;9635;52.078;8.648;2024-02-21T10:02:10;100547.19;;;8.73;74.77
19005;BME280;9635;52.078;8.648;2024-02-21T10:07:14;100542.31;;;8.91;72.37
19005;BME280;9635;52.078;8.648;2024-02-21T10:12:17;100549.94;;;8.97;72.51
19005;BME280;9635;52.078;8.648;2024-02-21T10:17:22;100545.94;;;9.40;70.28
19005;BME280;9635;52.078;8.648;2024-02-21T10:22:25;100539.38;;;9.20;70.55
19005;BME280;9635;52.078;8.648;2024-02-21T10:27:30;100536.78;;;8.81;70.81
19005;BME280;9635;52.078;8.648;2024-02-21T10:32:35;100525.63;;;8.88;70.68
19005;BME280;9635;52.078;8.648;2024-02-21T10:37:38;100521.16;;;9.12;70.24
19005;BME280;9635;52.078;8.648;2024-02-21T10:42:44;100543.44;;;8.63;71.11
19005;BME280;9635;52.078;8.648;2024-02-21T10:47:51;100519.78;;;8.70;71.25
19005;BME280;9635;52.078;8.648;2024-02-21T10:53:05;100508.69;;;9.00;70.89
19005;BME280;9635;52.078;8.648;2024-02-21T10:58:12;100497.06;;;9.12;70.67
19005;BME280;9635;52.078;8.648;2024-02-21T11:03:17;100496.28;;;8.86;71.77
19005;BME280;9635;52.078;8.648;2024-02-21T11:08:22;100475.50;;;9.14;70.90
19005;BME280;9635;52.078;8.648;2024-02-21T11:13:30;100465.09;;;9.22;71.72
19005;BME280;9635;52.078;8.648;2024-02-21T11:18:36;100468.81;;;8.58;74.14
19005;BME280;9635;52.078;8.648;2024-02-21T11:23:39;100463.84;;;8.52;74.49
19005;BME280;9635;52.078;8.648;2024-02-21T11:28:42;100440.53;;;9.15;73.05
19005;BME280;9635;52.078;8.648;2024-02-21T11:33:47;100433.13;;;8.95;74.37
19005;BME280;9635;52.078;8.648;2024-02-21T11:38:51;100415.44;;;9.40;71.79
19005;BME280;9635;52.078;8.648;2024-02-21T11:43:54;100408.06;;;9.55;71.55
19005;BME280;9635;52.078;8.648;2024-02-21T11:49:00;100413.44;;;9.55;70.72
19005;BME280;9635;52.078;8.648;2024-02-21T11:54:06;100394.13;;;9.15;72.75
19005;BME280;9635;52.078;8.648;2024-02-21T11:59:09;100371.72;;;9.16;72.88
19005;BME280;9635;52.078;8.648;2024-02-21T12:04:14;100349.28;;;9.41;73.00
19005;BME280;9635;52.078;8.648;2024-02-21T12:09:19;100373.44;;;9.17;74.03
19005;BME280;9635;52.078;8.648;2024-02-21T12:14:22;100353.00;;;8.92;75.55
19005;BME280;9635;52.078;8.648;2024-02-21T12:19:26;100342.13;;;9.17;73.52
19005;BME280;9635;52.078;8.648;2024-02-21T12:24:32;100346.06;;;9.24;73.14
19005;BME280;9635;52.078;8.648;2024-02-21T12:29:35;100331.25;;;9.54;73.14
19005;BME280;9635;52.078;8.648;2024-02-21T12:34:39;100327.91;;;9.28;73.60
19005;BME280;9635;52.078;8.648;2024-02-21T12:39:54;100309.75;;;9.32;73.53
19005;BME280;9635;52.078;8.648;2024-02-21T12:44:58;100307.34;;;9.04;74.54
19005;BME280;9635;52.078;8.648;2024-02-21T12:50:04;100287.78;;;9.15;74.63
19005;BME280;9635;52.078;8.648;2024-02-21T12:55:09;100270.06;;;8.66;76.99
19005;BME280;9635;52.078;8.648;2024-02-21T13:00:14;100238.34;;;9.19;75.49
19005;BME280;9635;52.078;8.648;2024-02-21T13:05:19;100231.25;;;9.18;74.89
19005;BME280;9635;52.078;8.648;2024-02-21T13:10:22;100246.56;;;9.05;76.40
19005;BME280;9635;52.078;8.648;2024-02-21T13:15:25;100238.59;;;9.27;76.65
19005;BME280;9635;52.078;8.648;2024-02-21T13:20:31;100207.38;;;9.15;76.93
19005;BME280;9635;52.078;8.648;2024-02-21T13:25:34;100183.53;;;9.35;76.91
19005;BME280;9635;52.078;8.648;2024-02-21T13:30:37;100134.66;;;9.54;75.92
19005;BME280;9635;52.078;8.648;2024-02-21T13:35:42;100118.44;;;9.55;75.39
19005;BME280;9635;52.078;8.648;2024-02-21T13:40:45;100104.44;;;9.63;74.46
19005;BME280;9635;52.078;8.648;2024-02-21T13:45:59;100133.09;;;9.40;75.36
19005;BME280;9635;52.078;8.648;2024-02-21T13:51:04;100092.38;;;9.35;74.80
19005;BME280;9635;52.078;8.648;2024-02-21T13:56:07;100077.84;;;9.48;74.24
19005;BME280;9635;52.078;8.648;2024-02-21T14:01:11;100055.59;;;9.80;72.97
19005;BME280;9635;52.078;8.648;2024-02-21T14:06:15;100025.22;;;9.47;72.33
19005;BME280;9635;52.078;8.648;2024-02-21T14:11:19;100000.16;;;9.69;71.08
19005;BME280;9635;52.078;8.648;2024-02-21T14:16:22;100053.75;;;9.37;72.19
19005;BME280;9635;52.078;8.648;2024-02-21T14:21:26;100047.25;;;9.51;71.97
19005;BME280;9635;52.078;8.648;2024-02-21T14:26:30;100028.69;;;9.27;71.27
19005;BME280;9635;52.078;8.648;2024-02-21T14:31:34;99991.22;;;9.80;70.57
19005;BME280;9635;52.078;8.648;2024-02-21T14:36:38;99985.78;;;10.03;68.79
19005;BME280;9635;52.078;8.648;2024-02-21T14:41:42;99974.63;;;9.86;67.45
19005;BME280;9635;52.078;8.648;2024-02-21T14:46:45;99954.22;;;10.16;65.54
19005;BME280;9635;52.078;8.648;2024-02-21T14:51:49;99947.84;;;9.75;66.34
19005;BME280;9635;52.078;8.648;2024-02-21T14:56:52;99924.72;;;9.95;66.21
19005;BME280;9635;52.078;8.648;2024-02-21T15:01:56;99912.66;;;9.89;66.23
19005;BME280;9635;52.078;8.648;2024-02-21T15:07:01;99906.91;;;9.94;67.09
19005;BME280;9635;52.078;8.648;2024-02-21T15:12:04;99908.75;;;9.93;67.18
19005;BME280;9635;52.078;8.648;2024-02-21T15:17:09;99880.72;;;10.07;66.84
19005;BME280;9635;52.078;8.648;2024-02-21T15:22:14;99867.41;;;9.96;67.64
19005;BME280;9635;52.078;8.648;2024-02-21T15:27:17;99848.19;;;10.01;67.74
19005;BME280;9635;52.078;8.648;2024-02-21T15:32:20;99835.78;;;10.00;67.75
19005;BME280;9635;52.078;8.648;2024-02-21T15:37:25;99802.28;;;9.94;68.30
19005;BME280;9635;52.078;8.648;2024-02-21T15:42:28;99799.22;;;9.99;68.01
19005;BME280;9635;52.078;8.648;2024-02-21T15:47:33;99802.19;;;9.84;68.49
19005;BME280;9635;52.078;8.648;2024-02-21T15:52:37;99781.56;;;9.75;69.09
19005;BME280;9635;52.078;8.648;2024-02-21T15:57:41;99775.38;;;9.84;69.82
19005;BME280;9635;52.078;8.648;2024-02-21T16:02:43;99768.31;;;9.53;69.08
19005;BME280;9635;52.078;8.648;2024-02-21T16:07:48;99766.28;;;9.45;68.67
19005;BME280;9635;52.078;8.648;2024-02-21T16:12:51;99760.38;;;9.51;68.01
19005;BME280;9635;52.078;8.648;2024-02-21T16:17:54;99760.81;;;9.46;68.60
19005;BME280;9635;52.078;8.648;2024-02-21T16:22:59;99740.84;;;9.39;68.71
19005;BME280;9635;52.078;8.648;2024-02-21T16:28:05;99740.09;;;9.27;68.79
19005;BME280;9635;52.078;8.648;2024-02-21T16:33:09;99734.53;;;9.19;68.95
19005;BME280;9635;52.078;8.648;2024-02-21T16:38:13;99741.47;;;9.22;69.37
19005;BME280;9635;52.078;8.648;2024-02-21T16:43:16;99723.09;;;9.17;69.76
19005;BME280;9635;52.078;8.648;2024-02-21T16:48:19;99709.59;;;9.19;69.45
19005;BME280;9635;52.078;8.648;2024-02-21T16:53:25;99713.50;;;9.15;69.92
19005;BME280;9635;52.078;8.648;2024-02-21T16:58:28;99708.97;;;9.15;69.47
19005;BME280;9635;52.078;8.648;2024-02-21T17:03:32;99704.47;;;9.16;69.25
19005;BME280;9635;52.078;8.648;2024-02-21T17:08:37;99706.91;;;9.19;69.05
19005;BME280;9635;52.078;8.648;2024-02-21T17:13:42;99702.03;;;9.13;68.55
19005;BME280;9635;52.078;8.648;2024-02-21T17:18:45;99694.94;;;9.23;68.27
19005;BME280;9635;52.078;8.648;2024-02-21T17:23:50;99690.88;;;9.28;67.16
19005;BME280;9635;52.078;8.648;2024-02-21T17:28:53;99672.94;;;9.29;66.59
19005;BME280;9635;52.078;8.648;2024-02-21T17:33:57;99674.31;;;9.23;66.06
19005;BME280;9635;52.078;8.648;2024-02-21T17:39:01;99659.81;;;9.26;65.43
19005;BME280;9635;52.078;8.648;2024-02-21T17:44:06;99656.03;;;9.28;65.37
19005;BME280;9635;52.078;8.648;2024-02-21T17:49:10;99645.47;;;9.37;65.22
19005;BME280;9635;52.078;8.648;2024-02-21T17:54:15;99637.25;;;9.28;65.24
19005;BME280;9635;52.078;8.648;2024-02-21T17:59:18;99631.34;;;9.25;64.32
19005;BME280;9635;52.078;8.648;2024-02-21T18:04:24;99613.72;;;9.32;63.48
19005;BME280;9635;52.078;8.648;2024-02-21T18:09:29;99606.84;;;9.39;63.09
19005;BME280;9635;52.078;8.648;2024-02-21T18:14:32;99598.25;;;9.45;63.32
19005;BME280;9635;52.078;8.648;2024-02-21T18:19:35;99580.72;;;9.32;64.20
19005;BME280;9635;52.078;8.648;2024-02-21T18:24:41;99568.69;;;9.26;64.65
19005;BME280;9635;52.078;8.648;2024-02-21T18:29:45;99560.94;;;9.23;66.13
19005;BME280;9635;52.078;8.648;2024-02-21T18:34:49;99549.84;;;8.97;65.66
19005;BME280;9635;52.078;8.648;2024-02-21T18:39:54;99534.72;;;8.86;65.55
19005;BME280;9635;52.078;8.648;2024-02-21T18:44:57;99507.22;;;8.84;67.17
19005;BME280;9635;52.078;8.648;2024-02-21T18:50:01;99500.06;;;8.94;69.60
19005;BME280;9635;52.078;8.648;2024-02-21T18:55:07;99480.25;;;8.76;69.12
19005;BME280;9635;52.078;8.648;2024-02-21T19:00:14;99468.47;;;8.57;69.38
19005;BME280;9635;52.078;8.648;2024-02-21T19:05:20;99452.75;;;8.43;69.67
19005;BME280;9635;52.078;8.648;2024-02-21T19:10:26;99451.28;;;8.29;71.68
19005;BME280;9635;52.078;8.648;2024-02-21T19:15:30;99434.25;;;8.09;73.49
19005;BME280;9635;52.078;8.648;2024-02-21T19:20:34;99432.50;;;7.99;73.42
19005;BME280;9635;52.078;8.648;2024-02-21T19:25:39;99426.88;;;7.81;74.70
19005;BME280;9635;52.078;8.648;2024-02-21T19:30:45;99405.63;;;7.58;75.45
19005;BME280;9635;52.078;8.648;2024-02-21T19:35:48;99393.44;;;7.65;77.94
19005;BME280;9635;52.078;8.648;2024-02-21T19:40:53;99379.00;;;7.36;81.02
19005;BME280;9635;52.078;8.648;2024-02-21T19:45:56;99375.50;;;7.24;83.60
19005;BME280;9635;52.078;8.648;2024-02-21T19:50:59;99371.75;;;7.26;86.69
19005;BME280;9635;52.078;8.648;2024-02-21T19:56:07;99377.16;;;7.04;89.33
19005;BME280;9635;52.078;8.648;2024-02-21T20:01:10;99355.28;;;7.21;93.16
19005;BME280;9635;52.078;8.648;2024-02-21T20:06:13;99346.13;;;7.03;94.98
19005;BME280;9635;52.078;8.648;2024-02-21T20:11:19;99331.25;;;6.78;97.78
19005;BME280;9635;52.078;8.648;2024-02-21T20:16:24;99328.09;;;6.73;99.59
19005;BME280;9635;52.078;8.648;2024-02-21T20:21:27;99310.59;;;6.80;100.00
19005;BME280;9635;52.078;8.648;2024-02-21T20:26:31;99305.03;;;6.72;100.00
19005;BME280;9635;52.078;8.648;2024-02-21T20:31:34;99290.53;;;6.65;100.00
19005;BME280;9635;52.078;8.648;2024-02-21T20:36:37;99278.50;;;6.70;100.00
19005;BME280;9635;52.078;8.648;2024-02-21T20:41:42;99266.06;;;6.48;100.00
19005;BME280;9635;52.078;8.648;2024-02-21T20:46:45;99263.97;;;6.52;100.00
19005;BME280;9635;52.078;8.648;2024-02-21T20:51:48;99267.38;;;6.54;100.00
19005;BME280;9635;52.078;8.648;2024-02-21T20:56:53;99258.06;;;6.48;100.00
19005;BME280;9635;52.078;8.648;2024-02-21T21:01:58;99238.25;;;6.62;100.00
19005;BME280;9635;52.078;8.648;2024-02-21T21:07:04;99231.44;;;6.69;100.00
19005;BME280;9635;52.078;8.648;2024-02-21T21:12:09;99224.47;;;6.46;100.00
19005;BME280;9635;52.078;8.648;2024-02-21T21:17:13;99211.09;;;6.57;100.00
19005;BME280;9635;52.078;8.648;2024-02-21T21:22:17;99206.06;;;6.75;100.00
19005;BME280;9635;52.078;8.648;2024-02-21T21:27:22;99199.22;;;6.61;100.00
19005;BME280;9635;52.078;8.648;2024-02-21T21:32:28;99203.16;;;6.99;100.00
19005;BME280;9635;52.078;8.648;2024-02-21T21:37:31;99191.78;;;6.85;100.00
19005;BME280;9635;52.078;8.648;2024-02-21T21:42:36;99178.13;;;6.79;100.00
19005;BME280;9635;52.078;8.648;2024-02-21T21:47:39;99167.97;;;6.73;100.00
19005;BME280;9635;52.078;8.648;2024-02-21T21:52:45;99156.03;;;6.77;100.00
19005;BME280;9635;52.078;8.648;2024-02-21T21:57:55;99155.63;;;6.93;100.00
19005;BME280;9635;52.078;8.648;2024-02-21T22:02:58;99147.19;;;6.76;100.00
19005;BME280;9635;52.078;8.648;2024-02-21T22:08:01;99122.53;;;6.84;100.00
19005;BME280;9635;52.078;8.648;2024-02-21T22:13:06;99128.66;;;6.75;100.00
19005;BME280;9635;52.078;8.648;2024-02-21T22:18:09;99113.69;;;6.83;100.00
19005;BME280;9635;52.078;8.648;2024-02-21T22:23:12;99095.47;;;6.68;100.00
19005;BME280;9635;52.078;8.648;2024-02-21T22:28:17;99091.34;;;7.05;100.00
19005;BME280;9635;52.078;8.648;2024-02-21T22:33:20;99082.16;;;6.77;100.00
19005;BME280;9635;52.078;8.648;2024-02-21T22:38:23;99076.25;;;6.74;100.00
19005;BME280;9635;52.078;8.648;2024-02-21T22:43:28;99061.06;;;6.74;100.00
19005;BME280;9635;52.078;8.648;2024-02-21T22:48:31;99054.78;;;6.75;100.00
19005;BME280;9635;52.078;8.648;2024-02-21T22:53:34;99048.19;;;6.79;100.00
19005;BME280;9635;52.078;8.648;2024-02-21T22:58:38;99038.16;;;6.72;100.00
19005;BME280;9635;52.078;8.648;2024-02-21T23:03:42;99023.41;;;6.89;100.00
19005;BME280;9635;52.078;8.648;2024-02-21T23:08:45;99004.53;;;6.80;100.00
19005;BME280;9635;52.078;8.648;2024-02-21T23:13:49;99004.34;;;6.72;100.00
19005;BME280;9635;52.078;8.648;2024-02-21T23:18:52;98988.78;;;7.08;100.00
19005;BME280;9635;52.078;8.648;2024-02-21T23:23:55;98985.84;;;6.80;100.00
19005;BME280;9635;52.078;8.648;2024-02-21T23:29:00;98969.41;;;6.85;100.00
19005;BME280;9635;52.078;8.648;2024-02-21T23:34:04;98967.34;;;6.89;100.00
19005;BME280;9635;52.078;8.648;2024-02-21T23:39:08;98954.00;;;6.89;100.00
19005;BME280;9635;52.078;8.648;2024-02-21T23:44:12;98957.31;;;6.81;100.00
19005;BME280;9635;52.078;8.648;2024-02-21T23:49:15;98935.34;;;6.98;100.00
19005;BME280;9635;52.078;8.648;2024-02-21T23:54:19;98942.34;;;6.90;100.00
19005;BME280;9635;52.078;8.648;2024-02-21T23:59:23;98923.41;;;6.72;100.00
